createdAt,value
2022-11-13T00:01:21.826Z,13.10
2022-11-13T00:03:48.620Z,10.70
2022-11-13T00:06:16.362Z,11.17
2022-11-13T00:08:43.509Z,11.97
2022-11-13T00:11:18.333Z,13.70
2022-11-13T00:13:46.315Z,14.70
2022-11-13T00:16:21.379Z,15.00
2022-11-13T00:18:48.534Z,15.90
2022-11-13T00:21:20.499Z,15.77
2022-11-13T00:23:47.256Z,15.27
2022-11-13T00:26:30.086Z,16.30
2022-11-13T00:29:00.124Z,18.67
2022-11-13T00:31:28.513Z,17.67
2022-11-13T00:34:13.920Z,16.57
2022-11-13T00:36:42.302Z,15.47
2022-11-13T00:39:09.805Z,14.73
2022-11-13T00:41:36.611Z,15.17
2022-11-13T00:44:04.001Z,14.87
2022-11-13T00:46:30.770Z,14.87
2022-11-13T00:48:57.556Z,15.23
2022-11-13T00:51:24.516Z,15.53
2022-11-13T00:53:51.308Z,17.77
2022-11-13T00:56:18.090Z,17.43
2022-11-13T00:58:44.810Z,17.17
2022-11-13T01:01:17.506Z,17.97
2022-11-13T01:03:44.922Z,18.97
2022-11-13T01:06:26.648Z,18.70
2022-11-13T01:08:59.767Z,18.27
2022-11-13T01:11:29.655Z,18.03
2022-11-13T01:13:57.217Z,17.00
2022-11-13T01:16:26.654Z,17.93
2022-11-13T01:18:57.427Z,16.87
2022-11-13T01:21:27.547Z,15.70
2022-11-13T01:23:56.163Z,16.73
2022-11-13T01:26:30.098Z,15.83
2022-11-13T01:28:59.338Z,16.10
2022-11-13T01:31:29.778Z,16.53
2022-11-13T01:33:57.238Z,17.27
2022-11-13T01:36:28.278Z,16.07
2022-11-13T01:38:56.301Z,14.77
2022-11-13T01:41:28.532Z,15.20
2022-11-13T01:43:56.303Z,15.73
2022-11-13T01:46:30.619Z,15.63
2022-11-13T01:49:17.927Z,15.90
2022-11-13T01:51:56.041Z,16.30
2022-11-13T01:54:47.471Z,16.43
2022-11-13T01:57:16.629Z,16.43
2022-11-13T02:00:04.563Z,15.47
2022-11-13T02:02:31.313Z,15.43
2022-11-13T02:04:58.452Z,15.53
2022-11-13T02:07:26.260Z,14.30
2022-11-13T02:09:58.083Z,14.53
2022-11-13T02:12:46.354Z,12.93
2022-11-13T02:15:13.688Z,12.37
2022-11-13T02:17:48.769Z,13.20
2022-11-13T02:20:17.441Z,14.87
2022-11-13T02:22:50.282Z,14.73
2022-11-13T02:25:19.751Z,14.57
2022-11-13T02:27:49.735Z,14.20
2022-11-13T02:30:23.761Z,14.20
2022-11-13T02:32:55.587Z,14.00
2022-11-13T02:35:32.055Z,14.07
2022-11-13T02:38:03.328Z,11.40
2022-11-13T02:40:32.351Z,10.17
2022-11-13T02:42:59.152Z,10.27
2022-11-13T02:45:26.016Z,11.37
2022-11-13T02:47:52.777Z,12.23
2022-11-13T02:50:19.538Z,11.70
2022-11-13T02:52:46.418Z,12.70
2022-11-13T02:55:13.255Z,12.67
2022-11-13T02:57:39.971Z,11.90
2022-11-13T03:00:12.386Z,11.87
2022-11-13T03:02:42.189Z,11.33
2022-11-13T03:05:12.450Z,11.53
2022-11-13T03:07:40.545Z,12.40
2022-11-13T03:10:09.355Z,12.70
2022-11-13T03:12:36.393Z,12.73
2022-11-13T03:15:04.949Z,13.10
2022-11-13T03:17:32.519Z,12.83
2022-11-13T03:19:59.618Z,13.50
2022-11-13T03:22:27.402Z,12.53
2022-11-13T03:24:54.318Z,13.07
2022-11-13T03:27:21.458Z,13.23
2022-11-13T03:29:48.515Z,12.67
2022-11-13T03:32:15.481Z,11.93
2022-11-13T03:34:42.407Z,12.20
2022-11-13T03:37:09.134Z,11.80
2022-11-13T03:39:35.822Z,12.13
2022-11-13T03:42:02.517Z,12.67
2022-11-13T03:44:29.239Z,11.90
2022-11-13T03:46:55.949Z,12.10
2022-11-13T03:49:22.712Z,11.97
2022-11-13T03:51:49.501Z,12.03
2022-11-13T03:54:16.265Z,11.03
2022-11-13T03:56:42.987Z,11.20
2022-11-13T03:59:09.701Z,11.07
2022-11-13T04:01:36.469Z,10.87
2022-11-13T04:04:03.263Z,10.93
2022-11-13T04:06:30.129Z,9.87
2022-11-13T04:08:57.456Z,10.10
2022-11-13T04:11:24.246Z,9.73
2022-11-13T04:13:50.940Z,9.90
2022-11-13T04:16:17.661Z,9.60
2022-11-13T04:18:44.423Z,10.60
2022-11-13T04:21:11.129Z,10.13
2022-11-13T04:23:37.927Z,9.60
2022-11-13T04:26:05.478Z,10.00
2022-11-13T04:28:32.569Z,9.83
2022-11-13T04:30:59.484Z,9.03
2022-11-13T04:33:26.214Z,10.00
2022-11-13T04:35:52.964Z,8.33
2022-11-13T04:38:19.695Z,10.23
2022-11-13T04:41:10.887Z,9.53
2022-11-13T04:43:37.612Z,10.27
2022-11-13T04:46:04.417Z,10.63
2022-11-13T04:48:31.351Z,9.60
2022-11-13T04:50:58.237Z,10.77
2022-11-13T04:53:24.942Z,9.33
2022-11-13T04:55:53.555Z,11.83
2022-11-13T04:58:20.272Z,12.80
2022-11-13T05:00:46.979Z,11.03
2022-11-13T05:03:13.706Z,10.70
2022-11-13T05:05:40.416Z,10.70
2022-11-13T05:08:07.150Z,9.70
2022-11-13T05:10:33.905Z,10.03
2022-11-13T05:13:00.635Z,9.30
2022-11-13T05:15:27.411Z,9.20
2022-11-13T05:17:54.369Z,8.97
2022-11-13T05:20:21.133Z,9.10
2022-11-13T05:22:47.855Z,10.50
2022-11-13T05:25:14.747Z,9.33
2022-11-13T05:27:41.884Z,9.40
2022-11-13T05:30:09.320Z,9.50
2022-11-13T05:32:36.014Z,10.83
2022-11-13T05:35:02.734Z,11.93
2022-11-13T05:37:29.755Z,10.20
2022-11-13T05:39:56.475Z,10.03
2022-11-13T05:42:23.214Z,8.50
2022-11-13T05:44:49.907Z,9.30
2022-11-13T05:47:16.647Z,9.07
2022-11-13T05:49:43.351Z,9.27
2022-11-13T05:52:10.085Z,9.77
2022-11-13T05:54:37.051Z,9.67
2022-11-13T05:57:03.840Z,7.73
2022-11-13T05:59:30.619Z,9.33
2022-11-13T06:01:58.021Z,8.67
2022-11-13T06:04:24.843Z,8.63
2022-11-13T06:06:52.359Z,8.17
2022-11-13T06:09:19.188Z,8.53
2022-11-13T06:11:45.920Z,8.93
2022-11-13T06:14:15.119Z,8.50
2022-11-13T06:16:41.911Z,8.53
2022-11-13T06:19:10.583Z,8.50
2022-11-13T06:21:40.556Z,8.17
2022-11-13T06:24:10.771Z,8.37
2022-11-13T06:26:38.669Z,8.90
2022-11-13T06:29:09.954Z,8.23
2022-11-13T06:31:37.714Z,7.77
2022-11-13T06:34:06.107Z,8.53
2022-11-13T06:36:37.009Z,8.50
2022-11-13T06:39:09.398Z,8.67
2022-11-13T06:41:38.325Z,8.17
2022-11-13T06:44:05.265Z,9.20
2022-11-13T06:46:32.066Z,9.60
2022-11-13T06:48:59.225Z,8.43
2022-11-13T06:51:29.365Z,8.40
2022-11-13T06:53:57.167Z,8.77
2022-11-13T06:56:26.184Z,8.57
2022-11-13T06:58:54.825Z,9.07
2022-11-13T07:01:24.935Z,8.33
2022-11-13T07:03:52.070Z,8.97
2022-11-13T07:06:23.342Z,8.80
2022-11-13T07:08:50.822Z,8.20
2022-11-13T07:11:21.993Z,7.73
2022-11-13T07:13:49.800Z,9.00
2022-11-13T07:16:18.229Z,7.80
2022-11-13T07:18:53.644Z,8.03
2022-11-13T07:21:21.913Z,8.17
2022-11-13T07:23:50.196Z,9.30
2022-11-13T07:26:17.733Z,9.07
2022-11-13T07:28:45.287Z,11.97
2022-11-13T07:31:14.436Z,16.83
2022-11-13T07:33:41.953Z,12.73
2022-11-13T07:36:10.014Z,15.33
2022-11-13T07:38:37.196Z,14.13
2022-11-13T07:41:04.341Z,9.07
2022-11-13T07:43:31.133Z,7.50
2022-11-13T07:46:01.699Z,7.43
2022-11-13T07:48:28.991Z,8.63
2022-11-13T07:51:00.209Z,9.07
2022-11-13T07:53:26.936Z,10.07
2022-11-13T07:55:53.705Z,11.37
2022-11-13T07:58:20.471Z,9.63
2022-11-13T08:00:47.341Z,9.00
2022-11-13T08:03:16.878Z,8.20
2022-11-13T08:05:44.131Z,8.50
2022-11-13T08:08:15.177Z,7.93
2022-11-13T08:10:42.422Z,7.97
2022-11-13T08:13:11.190Z,8.50
2022-11-13T08:15:38.577Z,9.77
2022-11-13T08:18:06.568Z,9.73
2022-11-13T08:20:34.089Z,9.90
2022-11-13T08:23:03.366Z,10.43
2022-11-13T08:25:32.425Z,14.50
2022-11-13T08:27:59.587Z,10.17
2022-11-13T08:30:28.519Z,8.80
2022-11-13T08:32:55.596Z,8.10
2022-11-13T08:35:28.100Z,14.63
2022-11-13T08:38:04.213Z,14.60
2022-11-13T08:40:31.879Z,13.90
2022-11-13T08:43:00.590Z,14.50
2022-11-13T08:45:29.459Z,13.17
2022-11-13T08:48:01.512Z,13.30
2022-11-13T08:50:29.785Z,13.30
2022-11-13T08:52:58.400Z,9.13
2022-11-13T08:55:26.248Z,8.97
2022-11-13T08:57:53.779Z,10.50
2022-11-13T09:00:21.511Z,10.40
2022-11-13T09:02:48.238Z,11.87
2022-11-13T09:05:15.090Z,10.43
2022-11-13T09:07:41.845Z,9.87
2022-11-13T09:10:08.701Z,9.60
2022-11-13T09:12:35.420Z,8.70
2022-11-13T09:15:02.188Z,8.23
2022-11-13T09:17:29.119Z,8.10
2022-11-13T09:19:58.399Z,7.03
2022-11-13T09:22:27.678Z,6.77
2022-11-13T09:24:54.419Z,7.30
2022-11-13T09:27:21.769Z,6.83
2022-11-13T09:29:54.279Z,6.63
2022-11-13T09:32:22.214Z,6.70
2022-11-13T09:34:48.951Z,6.93
2022-11-13T09:37:16.425Z,6.33
2022-11-13T09:39:43.213Z,6.70
2022-11-13T09:42:28.383Z,5.83
2022-11-13T09:45:14.694Z,6.70
2022-11-13T09:47:47.014Z,7.50
2022-11-13T09:50:26.145Z,7.57
2022-11-13T09:52:54.744Z,8.40
2022-11-13T09:55:33.463Z,8.63
2022-11-13T09:58:10.247Z,11.20
2022-11-13T10:00:37.163Z,16.03
2022-11-13T10:04:00.555Z,9.90
2022-11-13T10:07:40.377Z,7.73
2022-11-13T10:10:58.032Z,6.90
2022-11-13T10:13:33.194Z,6.93
2022-11-13T10:16:40.540Z,6.37
2022-11-13T10:19:33.143Z,6.73
2022-11-13T10:22:32.277Z,6.40
2022-11-13T10:25:23.195Z,6.77
2022-11-13T10:28:21.563Z,6.25
2022-11-13T10:30:50.328Z,5.80
2022-11-13T10:33:21.539Z,5.20
2022-11-13T10:36:14.990Z,4.55
2022-11-13T10:39:06.979Z,3.80
2022-11-13T10:41:44.978Z,4.10
2022-11-13T10:44:35.219Z,2.57
2022-11-13T10:47:15.997Z,1.40
2022-11-13T10:49:42.842Z,1.10
2022-11-13T10:52:30.452Z,1.38
2022-11-13T10:55:42.882Z,1.17
2022-11-13T10:58:17.703Z,1.55
2022-11-13T11:00:49.003Z,0.88
2022-11-13T11:03:27.103Z,0.77
2022-11-13T11:06:04.953Z,1.05
2022-11-13T11:08:35.446Z,0.70
2022-11-13T11:11:32.184Z,0.77
2022-11-13T11:14:24.672Z,0.90
2022-11-13T11:16:54.066Z,0.73
2022-11-13T11:19:26.632Z,0.70
2022-11-13T11:22:06.597Z,0.45
2022-11-13T11:24:41.998Z,0.70
2022-11-13T11:27:28.911Z,0.77
2022-11-13T11:30:20.643Z,0.68
2022-11-13T11:33:00.608Z,0.60
2022-11-13T11:35:45.015Z,0.70
2022-11-13T11:38:35.356Z,0.80
2022-11-13T11:41:17.060Z,0.80
2022-11-13T11:44:02.030Z,0.60
2022-11-13T11:46:30.396Z,0.80
2022-11-13T11:49:01.389Z,0.60
2022-11-13T11:52:14.012Z,1.13
2022-11-13T11:54:48.931Z,0.40
2022-11-13T11:57:57.420Z,0.50
2022-11-13T12:00:28.238Z,0.70
2022-11-13T12:03:32.305Z,0.80
2022-11-13T12:06:29.925Z,0.50
2022-11-13T12:09:10.118Z,0.40
2022-11-13T12:12:02.899Z,0.73
2022-11-13T12:14:57.393Z,0.60
2022-11-13T12:17:51.943Z,0.60
2022-11-13T12:20:46.587Z,0.40
2022-11-13T12:23:57.265Z,0.80
2022-11-13T12:26:43.721Z,0.60
2022-11-13T12:29:40.685Z,0.60
2022-11-13T12:32:23.695Z,0.75
2022-11-13T12:34:57.029Z,1.00
2022-11-13T12:37:51.525Z,0.85
2022-11-13T12:41:04.431Z,0.80
2022-11-13T12:44:13.135Z,1.00
2022-11-13T12:46:41.692Z,0.75
2022-11-13T12:49:23.793Z,0.60
2022-11-13T12:52:03.333Z,0.68
2022-11-13T12:54:36.744Z,0.95
2022-11-13T12:57:30.158Z,1.00
2022-11-13T13:00:10.549Z,1.10
2022-11-13T13:02:52.043Z,0.80
2022-11-13T13:05:53.278Z,0.82
2022-11-13T13:08:54.678Z,0.70
2022-11-13T13:11:48.695Z,0.70
2022-11-13T13:14:50.332Z,0.70
2022-11-13T13:17:23.613Z,0.50
2022-11-13T13:20:22.269Z,0.90
2022-11-13T13:22:59.182Z,0.98
2022-11-13T13:25:35.544Z,0.73
2022-11-13T13:28:17.986Z,0.98
2022-11-13T13:31:07.084Z,0.98
2022-11-13T13:34:13.948Z,1.00
2022-11-13T13:36:59.627Z,0.70
2022-11-13T13:39:47.615Z,0.70
2022-11-13T13:42:41.134Z,0.60
2022-11-13T13:45:57.086Z,0.65
2022-11-13T13:48:28.705Z,0.68
2022-11-13T13:50:57.503Z,0.65
2022-11-13T13:53:36.015Z,0.70
2022-11-13T13:56:04.528Z,0.70
2022-11-13T13:58:37.909Z,0.80
2022-11-13T14:01:18.855Z,1.00
2022-11-13T14:03:45.974Z,0.80
2022-11-13T14:06:24.546Z,0.90
2022-11-13T14:08:51.321Z,0.73
2022-11-13T14:11:29.541Z,0.63
2022-11-13T14:14:08.848Z,0.77
2022-11-13T14:16:48.767Z,0.68
2022-11-13T14:19:16.036Z,0.57
2022-11-13T14:21:47.173Z,1.30
2022-11-13T14:24:33.621Z,1.20
2022-11-13T14:27:08.479Z,0.60
2022-11-13T14:29:39.371Z,0.60
2022-11-13T14:32:13.519Z,0.60
2022-11-13T14:34:47.160Z,0.80
2022-11-13T14:37:34.851Z,0.68
2022-11-13T14:40:19.208Z,0.80
2022-11-13T14:42:53.248Z,0.80
2022-11-13T14:45:21.506Z,0.93
2022-11-13T14:48:04.156Z,0.80
2022-11-13T14:50:37.149Z,0.80
2022-11-13T14:53:09.662Z,0.90
2022-11-13T14:55:53.046Z,0.90
2022-11-13T14:58:33.379Z,0.90
2022-11-13T15:01:18.419Z,0.88
2022-11-13T15:03:51.278Z,0.93
2022-11-13T15:06:24.051Z,0.90
2022-11-13T15:08:55.581Z,0.85
2022-11-13T15:11:25.119Z,1.88
2022-11-13T15:13:51.990Z,0.98
2022-11-13T15:16:24.192Z,1.30
2022-11-13T15:18:55.496Z,1.63
2022-11-13T15:21:22.212Z,2.28
2022-11-13T15:23:48.961Z,2.00
2022-11-13T15:26:15.824Z,4.32
2022-11-13T15:28:42.642Z,2.17
2022-11-13T15:31:32.575Z,1.90
2022-11-13T15:33:59.274Z,1.85
2022-11-13T15:36:26.302Z,2.10
2022-11-13T15:38:53.373Z,1.33
2022-11-13T15:41:23.449Z,1.23
2022-11-13T15:43:54.054Z,1.30
2022-11-13T15:46:23.391Z,1.50
2022-11-13T15:48:50.970Z,1.50
2022-11-13T15:51:41.230Z,1.92
2022-11-13T15:54:16.356Z,2.40
2022-11-13T15:56:43.899Z,2.30
2022-11-13T15:59:13.252Z,2.42
2022-11-13T16:01:41.645Z,2.42
2022-11-13T16:04:10.656Z,2.63
2022-11-13T16:06:37.659Z,2.47
2022-11-13T16:09:06.075Z,4.93
2022-11-13T16:11:34.680Z,10.40
2022-11-13T16:14:01.490Z,6.20
2022-11-13T16:16:48.194Z,9.27
2022-11-13T16:19:23.116Z,9.75
2022-11-13T16:21:49.878Z,8.63
2022-11-13T16:24:20.991Z,6.30
2022-11-13T16:26:56.858Z,9.75
2022-11-13T16:29:24.759Z,11.65
2022-11-13T16:31:52.425Z,12.70
2022-11-13T16:34:20.889Z,10.32
2022-11-13T16:36:47.958Z,11.02
2022-11-13T16:39:17.674Z,24.98
2022-11-13T16:41:44.701Z,12.68
2022-11-13T16:44:11.371Z,5.57
2022-11-13T16:46:44.636Z,5.65
2022-11-13T16:49:18.828Z,7.40
2022-11-13T16:51:46.837Z,10.15
2022-11-13T16:54:14.112Z,10.45
2022-11-13T16:56:40.927Z,11.27
2022-11-13T16:59:11.347Z,11.27
2022-11-13T17:01:38.520Z,8.15
2022-11-13T17:04:05.479Z,6.93
2022-11-13T17:06:35.378Z,7.13
2022-11-13T17:09:04.273Z,7.10
2022-11-13T17:11:32.407Z,8.27
2022-11-13T17:14:02.264Z,9.60
2022-11-13T17:16:31.266Z,8.50
2022-11-13T17:19:00.308Z,10.67
2022-11-13T17:21:29.625Z,12.57
2022-11-13T17:24:02.230Z,5.43
2022-11-13T17:26:31.342Z,17.57
2022-11-13T17:29:02.014Z,57.20
2022-11-13T17:31:28.755Z,30.67
2022-11-13T17:33:55.568Z,28.83
2022-11-13T17:36:22.919Z,22.20
2022-11-13T17:38:50.005Z,21.73
2022-11-13T17:41:17.564Z,21.13
2022-11-13T17:43:44.524Z,22.47
2022-11-13T17:46:15.612Z,20.03
2022-11-13T17:48:43.375Z,19.10
2022-11-13T17:51:14.044Z,20.57
2022-11-13T17:53:41.518Z,19.53
2022-11-13T17:56:11.735Z,15.23
2022-11-13T17:58:44.285Z,9.73
2022-11-13T18:01:15.459Z,10.23
2022-11-13T18:03:43.630Z,8.80
2022-11-13T18:06:18.485Z,16.60
2022-11-13T18:08:47.116Z,14.13
2022-11-13T18:11:27.289Z,13.37
2022-11-13T18:13:54.058Z,13.73
2022-11-13T18:16:31.319Z,11.87
2022-11-13T18:18:59.809Z,12.93
2022-11-13T18:21:33.931Z,11.33
2022-11-13T18:24:13.592Z,9.73
2022-11-13T18:26:41.109Z,11.00
2022-11-13T18:29:08.705Z,10.23
2022-11-13T18:31:35.828Z,13.53
2022-11-13T18:34:04.908Z,15.53
2022-11-13T18:36:33.069Z,15.90
2022-11-13T18:39:02.869Z,13.97
2022-11-13T18:41:30.435Z,12.60
2022-11-13T18:43:57.288Z,17.67
2022-11-13T18:46:24.465Z,18.83
2022-11-13T18:48:51.883Z,15.83
2022-11-13T18:51:23.496Z,16.53
2022-11-13T18:53:51.966Z,18.03
2022-11-13T18:56:30.631Z,16.60
2022-11-13T18:58:59.759Z,12.67
2022-11-13T19:01:30.848Z,13.13
2022-11-13T19:06:51.789Z,16.93
2022-11-13T19:09:19.735Z,19.27
2022-11-13T19:11:48.484Z,25.93
2022-11-13T19:14:17.198Z,15.43
2022-11-13T19:16:44.390Z,12.37
2022-11-13T19:19:21.467Z,11.70
2022-11-13T19:21:49.326Z,23.93
2022-11-13T19:24:16.961Z,7.30
2022-11-13T19:26:44.484Z,6.73
2022-11-13T19:29:11.695Z,23.57
2022-11-13T19:31:38.460Z,25.47
2022-11-13T19:34:07.942Z,28.60
2022-11-13T19:36:36.331Z,22.77
2022-11-13T19:39:04.651Z,19.83
2022-11-13T19:41:31.826Z,21.60
2022-11-13T19:44:00.175Z,24.43
2022-11-13T19:46:28.386Z,28.33
2022-11-13T19:48:55.133Z,29.63
2022-11-13T19:51:27.092Z,28.47
2022-11-13T19:53:59.640Z,25.33
2022-11-13T19:56:28.458Z,29.17
2022-11-13T19:58:56.426Z,21.77
2022-11-13T20:01:26.706Z,19.43
2022-11-13T20:03:56.457Z,17.80
2022-11-13T20:06:24.616Z,17.43
2022-11-13T20:08:51.383Z,21.80
2022-11-13T20:11:18.204Z,26.50
2022-11-13T20:13:46.293Z,23.87
2022-11-13T20:16:15.489Z,20.37
2022-11-13T20:18:43.696Z,18.93
2022-11-13T20:21:10.831Z,18.87
2022-11-13T20:23:37.536Z,18.03
2022-11-13T20:26:13.551Z,18.60
2022-11-13T20:28:40.551Z,19.97
2022-11-13T20:31:19.642Z,22.57
2022-11-13T20:33:48.222Z,21.03
2022-11-13T20:36:17.366Z,17.67
2022-11-13T20:38:50.436Z,16.63
2022-11-13T20:41:20.487Z,15.67
2022-11-13T20:43:48.451Z,15.40
2022-11-13T20:46:18.453Z,15.37
2022-11-13T20:48:46.096Z,15.00
2022-11-13T20:51:17.002Z,17.20
2022-11-13T20:53:44.053Z,15.00
2022-11-13T20:56:11.423Z,14.00
2022-11-13T20:58:38.313Z,14.93
2022-11-13T21:01:11.917Z,12.73
2022-11-13T21:03:41.822Z,10.87
2022-11-13T21:06:11.443Z,10.70
2022-11-13T21:08:38.994Z,10.70
2022-11-13T21:11:07.993Z,12.83
2022-11-13T21:13:35.189Z,14.53
2022-11-13T21:16:07.666Z,15.90
2022-11-13T21:18:34.824Z,16.10
2022-11-13T21:21:10.667Z,14.63
2022-11-13T21:23:37.807Z,16.83
2022-11-13T21:26:06.843Z,15.30
2022-11-13T21:28:35.157Z,14.30
2022-11-13T21:31:10.099Z,14.13
2022-11-13T21:33:38.821Z,14.57
2022-11-13T21:36:11.787Z,14.03
2022-11-13T21:38:38.966Z,14.90
2022-11-13T21:41:27.169Z,15.10
2022-11-13T21:44:06.661Z,13.93
2022-11-13T21:46:37.694Z,15.43
2022-11-13T21:49:11.161Z,14.00
2022-11-13T21:51:41.621Z,13.57
2022-11-13T21:54:09.205Z,15.47
2022-11-13T21:56:38.701Z,16.70
2022-11-13T21:59:06.807Z,15.27
2022-11-13T22:01:38.488Z,17.87
2022-11-13T22:04:06.292Z,18.17
2022-11-13T22:06:36.353Z,33.67
2022-11-13T22:09:15.939Z,41.80
2022-11-13T22:11:43.056Z,54.00
2022-11-13T22:14:10.415Z,35.30
2022-11-13T22:16:41.019Z,27.93
2022-11-13T22:19:14.046Z,25.33
2022-11-13T22:21:41.842Z,30.80
2022-11-13T22:24:09.914Z,29.50
2022-11-13T22:26:45.261Z,18.33
2022-11-13T22:29:11.986Z,17.80
2022-11-13T22:31:39.434Z,18.17
2022-11-13T22:34:06.470Z,16.83
2022-11-13T22:36:36.083Z,18.17
2022-11-13T22:39:04.157Z,12.27
2022-11-13T22:41:34.695Z,11.23
2022-11-13T22:44:06.150Z,13.93
2022-11-13T22:46:36.014Z,14.73
2022-11-13T22:49:04.968Z,17.57
2022-11-13T22:51:38.803Z,16.80
2022-11-13T22:54:09.551Z,17.07
2022-11-13T22:56:38.225Z,15.03
2022-11-13T22:59:09.182Z,13.80
2022-11-13T23:01:38.656Z,14.70
2022-11-13T23:04:09.603Z,16.83
2022-11-13T23:06:36.773Z,15.63
2022-11-13T23:09:06.018Z,16.17
2022-11-13T23:11:39.187Z,14.40
2022-11-13T23:14:11.394Z,15.27
2022-11-13T23:16:38.585Z,15.57
2022-11-13T23:19:05.418Z,16.20
2022-11-13T23:21:32.155Z,16.07
2022-11-13T23:23:58.967Z,16.17
2022-11-13T23:26:27.940Z,15.80
2022-11-13T23:28:55.266Z,16.63
2022-11-13T23:31:23.079Z,15.70
2022-11-13T23:33:49.882Z,15.70
2022-11-13T23:36:17.982Z,15.63
2022-11-13T23:38:45.207Z,15.03
2022-11-13T23:41:12.296Z,15.03
2022-11-13T23:44:08.163Z,14.93
2022-11-13T23:46:25.910Z,15.10
2022-11-13T23:48:52.603Z,15.27
2022-11-13T23:51:19.386Z,15.07
2022-11-13T23:53:46.099Z,13.93
2022-11-13T23:56:12.812Z,14.23
2022-11-13T23:58:39.580Z,13.87
